Terminal Aerodrome Forecast
Issued by NWS Newport/Morehead City, NC

Home | Current Version | Previous Version | Text Only | Print | Product List | Glossary Off
Versions: 1 2 3 4 5 6 7 8 9 10 11 12 13 14 15

000
FTUS42 KMHX 180524
TAFEWN
TAF
KEWN 180524Z 1806/1906 22010KT P6SM BKN150
     FM180900 23008KT P6SM VCSH BKN040
     FM181500 26011KT 6SM -SHRA BKN025
     FM181800 28011KT P6SM BKN250=

USA.gov is the U.S. government's official web portal to all federal, state and local government web resources and services.